EDT,Max TemperatureF,Mean TemperatureF,Min TemperatureF,Max Dew PointF,MeanDew PointF,Min DewpointF,Max Humidity, Mean Humidity, Min Humidity, Max Sea Level PressureIn, Mean Sea Level PressureIn, Min Sea Level PressureIn, Max VisibilityMiles, Mean VisibilityMiles, Min VisibilityMiles, Max Wind SpeedMPH, Mean Wind SpeedMPH, Max Gust SpeedMPH,PrecipitationIn, CloudCover, Events, WindDirDegrees
2012-10-1,93,83,73,74,71,68,87,68,49,29.81,29.76,29.71,10,10,7,20,8,25,0.01,4,,171
2012-10-2,89,81,73,74,70,63,87,67,46,30.03,29.83,29.74,10,9,2,14,4,21,0.35,6,Rain,203
2012-10-3,77,74,70,70,67,66,84,79,74,30.22,30.13,30.04,10,8,1,7,1,89,0.38,6,Rain,137
2012-10-4,86,79,71,73,70,66,93,79,65,30.27,30.20,30.15,10,7,0,5,2,5,0.16,6,Fog-Rain,38
2012-10-5,86,79,72,75,71,68,87,76,65,30.18,30.12,30.03,10,7,2,9,2,14,0.21,6,Rain-Thunderstorm,24
2012-10-6,91,82,72,73,70,68,93,73,52,30.05,29.99,29.92,10,6,0,6,2,7,0.00,5,Fog,25
2012-10-7,92,81,69,71,67,63,90,66,41,30.04,29.99,29.96,10,9,6,9,2,13,0.00,2,,250
2012-10-8,81,74,66,66,64,61,84,74,64,30.11,30.05,29.99,10,9,7,9,6,15,0.00,4,,31
2012-10-9,74,67,60,61,59,56,90,79,68,30.16,30.11,30.06,10,9,7,10,5,13,0.00,7,,52
2012-10-10,84,73,62,65,61,58,93,68,43,30.20,30.14,30.08,10,5,0,10,1,14,0.00,5,Fog,140
2012-10-11,83,70,57,59,57,53,87,64,40,30.27,30.22,30.17,10,7,3,12,2,21,0.00,0,,34
2012-10-12,88,73,57,64,58,54,87,64,40,30.28,30.22,30.17,10,7,2,14,2,18,0.00,0,,10
2012-10-13,86,75,64,64,61,58,87,64,40,30.30,30.24,30.20,10,10,7,15,6,21,0.00,0,,64
2012-10-14,90,78,65,68,65,61,87,66,44,30.22,30.14,30.06,10,10,8,10,4,14,0.00,3,,82
2012-10-15,89,77,64,70,66,60,90,67,43,30.04,29.95,29.84,10,8,3,8,1,15,0.00,4,,179
2012-10-16,80,69,58,58,50,45,80,55,30,29.99,29.93,29.90,10,10,10,13,4,17,0.00,1,,33
2012-10-17,81,69,57,60,56,51,87,65,42,30.00,29.93,29.87,10,10,7,10,2,14,0.00,3,,115
2012-10-18,88,73,57,68,61,54,93,69,45,29.91,29.86,29.81,10,7,0,13,2,20,T,5,Fog,181
2012-10-19,83,74,65,68,55,39,90,56,22,29.94,29.87,29.82,10,10,8,15,2,20,T,3,,345
2012-10-20,80,64,48,51,46,42,86,57,28,30.01,29.95,29.91,10,10,7,9,2,16,0.00,0,,310
2012-10-21,82,65,48,52,48,44,89,58,26,30.15,30.09,30.02,10,10,8,13,4,18,0.00,0,,31
2012-10-22,83,67,51,57,52,47,89,64,39,30.22,30.16,30.11,10,10,10,12,4,17,0.00,1,,82
2012-10-23,85,70,54,62,57,49,86,63,40,30.18,30.12,30.08,10,10,10,12,3,15,0.00,1,,70
2012-10-24,87,75,63,65,61,58,93,67,40,30.16,30.09,30.03,10,9,6,14,5,18,0.00,1,,63
2012-10-25,88,78,67,66,64,62,87,66,45,30.06,30.01,29.94,10,8,2,14,6,21,0.00,4,,53
2012-10-26,86,77,67,65,61,53,87,64,40,29.97,29.90,29.82,10,10,10,21,10,26,0.00,2,,27
2012-10-27,79,72,64,60,57,52,78,63,48,29.81,29.75,29.70,10,10,10,15,5,23,0.00,3,,346
2012-10-28,70,62,53,54,49,41,83,68,53,29.86,29.79,29.74,10,10,10,14,6,24,0.00,4,,312
2012-10-29,68,57,45,41,33,25,76,49,22,29.92,29.85,29.77,10,10,10,14,6,25,0.00,0,,308
2012-10-30,67,54,41,33,27,20,65,41,16,29.96,29.87,29.81,10,10,10,14,5,25,0.00,0,,290
2012-10-31,75,57,39,44,38,33,85,56,27,30.04,29.98,29.93,10,10,10,10,3,23,0.00,0,,254